AAL3224 KLAX-KCMH
Flight info
| Callsign | AAL3224 |
|---|---|
| Flight time | 3h 46m |
| Altitude | 33000 |
| Route | DOTSS2 CLEEE PKE DRK J96 GUP TOTOE/N0452F350 WRIGL STL JUDDI JAKTZ2 |
| Aircraft | A321/M-SDE3FGHIRWY/LB1 |
Departure
| Time | 2026-05-07 23:28 |
|---|---|
| Airport | Los Angeles International Airport (KLAX) |
Arrival
| Time | 2026-05-08 03:14 |
|---|---|
| Airport | John Glenn Columbus International Airport (KCMH) |
| Time | Latitude | Longitude | Altitude | Speed | Heading |
|---|---|---|---|---|---|
| 2026-05-07 23:01 | 33.94111 | -118.40626 | 126 ft | 0 kts | 261° |
| 2026-05-07 23:14 | 33.94111 | -118.40625 | 125 ft | 1 kts | 261° |
| 2026-05-07 23:14 | 33.94114 | -118.40608 | 125 ft | 3 kts | 247° |
| 2026-05-07 23:14 | 33.94123 | -118.40588 | 121 ft | 3 kts | 221° |
| 2026-05-07 23:15 | 33.94139 | -118.40575 | 125 ft | 3 kts | 195° |
| 2026-05-07 23:15 | 33.94158 | -118.40572 | 125 ft | 2 kts | 175° |
| 2026-05-07 23:15 | 33.94163 | -118.40572 | 125 ft | 0 kts | 172° |
| 2026-05-07 23:18 | 33.94162 | -118.40572 | 125 ft | 0 kts | 172° |
| 2026-05-07 23:18 | 33.94145 | -118.40569 | 125 ft | 4 kts | 172° |
| 2026-05-07 23:18 | 33.94118 | -118.40565 | 125 ft | 4 kts | 173° |
| 2026-05-07 23:18 | 33.94088 | -118.40561 | 122 ft | 5 kts | 173° |
| 2026-05-07 23:19 | 33.94053 | -118.40556 | 125 ft | 5 kts | 173° |
| 2026-05-07 23:19 | 33.94026 | -118.40552 | 125 ft | 0 kts | 173° |
| 2026-05-07 23:20 | 33.94024 | -118.40551 | 125 ft | 2 kts | 173° |
| 2026-05-07 23:20 | 33.93987 | -118.40546 | 126 ft | 9 kts | 173° |
| 2026-05-07 23:20 | 33.93925 | -118.40537 | 126 ft | 9 kts | 173° |
| 2026-05-07 23:21 | 33.93860 | -118.40527 | 126 ft | 10 kts | 170° |
| 2026-05-07 23:21 | 33.93832 | -118.40450 | 126 ft | 16 kts | 83° |
| 2026-05-07 23:21 | 33.93846 | -118.40314 | 126 ft | 17 kts | 83° |
| 2026-05-07 23:21 | 33.93860 | -118.40176 | 125 ft | 17 kts | 83° |
| 2026-05-07 23:22 | 33.93877 | -118.40020 | 126 ft | 25 kts | 83° |
| 2026-05-07 23:22 | 33.93896 | -118.39835 | 122 ft | 20 kts | 83° |
| 2026-05-07 23:22 | 33.93913 | -118.39665 | 123 ft | 20 kts | 83° |
| 2026-05-07 23:22 | 33.93930 | -118.39495 | 125 ft | 20 kts | 83° |
| 2026-05-07 23:23 | 33.93948 | -118.39325 | 125 ft | 20 kts | 83° |
| 2026-05-07 23:23 | 33.93965 | -118.39154 | 122 ft | 21 kts | 83° |
| 2026-05-07 23:23 | 33.93983 | -118.38984 | 125 ft | 21 kts | 83° |
| 2026-05-07 23:23 | 33.94001 | -118.38813 | 125 ft | 21 kts | 83° |
| 2026-05-07 23:24 | 33.94018 | -118.38642 | 125 ft | 21 kts | 84° |
| 2026-05-07 23:24 | 33.94035 | -118.38471 | 125 ft | 21 kts | 83° |
| 2026-05-07 23:24 | 33.94052 | -118.38299 | 124 ft | 21 kts | 83° |
| 2026-05-07 23:24 | 33.94069 | -118.38137 | 125 ft | 18 kts | 83° |
| 2026-05-07 23:25 | 33.94076 | -118.38044 | 123 ft | 0 kts | 93° |
| 2026-05-07 23:25 | 33.94076 | -118.38042 | 125 ft | 0 kts | 93° |
| 2026-05-07 23:26 | 33.94076 | -118.38041 | 125 ft | 1 kts | 94° |
| 2026-05-07 23:26 | 33.94048 | -118.38001 | 124 ft | 10 kts | 155° |
| 2026-05-07 23:26 | 33.93989 | -118.38015 | 124 ft | 9 kts | 238° |
| 2026-05-07 23:26 | 33.93982 | -118.38051 | 125 ft | 0 kts | 262° |
| 2026-05-07 23:27 | 33.93944 | -118.38408 | 126 ft | 75 kts | 263° |
| 2026-05-07 23:27 | 33.93855 | -118.39284 | 126 ft | 133 kts | 263° |
| 2026-05-07 23:27 | 33.93725 | -118.40588 | 125 ft | 179 kts | 263° |
| 2026-05-07 23:28 | 33.93561 | -118.42111 | 687 ft | 182 kts | 262° |
| 2026-05-07 23:28 | 33.93390 | -118.43617 | 1389 ft | 182 kts | 262° |
| 2026-05-07 23:28 | 33.93218 | -118.45134 | 2007 ft | 184 kts | 259° |
| 2026-05-07 23:28 | 33.92702 | -118.46605 | 2209 ft | 203 kts | 237° |
| 2026-05-07 23:29 | 33.91790 | -118.48007 | 2329 ft | 224 kts | 233° |
| 2026-05-07 23:29 | 33.90766 | -118.49551 | 2476 ft | 247 kts | 232° |
| 2026-05-07 23:29 | 33.89638 | -118.51184 | 2893 ft | 258 kts | 231° |
| 2026-05-07 23:29 | 33.88465 | -118.52846 | 3454 ft | 263 kts | 231° |
| 2026-05-07 23:30 | 33.87190 | -118.54439 | 4032 ft | 268 kts | 218° |
| 2026-05-07 23:30 | 33.85540 | -118.55479 | 4627 ft | 271 kts | 198° |
| 2026-05-07 23:30 | 33.83655 | -118.55767 | 5198 ft | 277 kts | 177° |
| 2026-05-07 23:30 | 33.81750 | -118.55342 | 5762 ft | 281 kts | 168° |
| 2026-05-07 23:31 | 33.79840 | -118.54814 | 6347 ft | 283 kts | 168° |
| 2026-05-07 23:31 | 33.77910 | -118.54288 | 6925 ft | 285 kts | 168° |
| 2026-05-07 23:31 | 33.75965 | -118.53760 | 7466 ft | 288 kts | 168° |
| 2026-05-07 23:31 | 33.74005 | -118.53229 | 8004 ft | 291 kts | 168° |
| 2026-05-07 23:32 | 33.72058 | -118.52532 | 8527 ft | 294 kts | 156° |
| 2026-05-07 23:32 | 33.70333 | -118.51197 | 9041 ft | 298 kts | 138° |
| 2026-05-07 23:32 | 33.69009 | -118.49278 | 9534 ft | 301 kts | 120° |
| 2026-05-07 23:32 | 33.68193 | -118.46963 | 10058 ft | 302 kts | 108° |
| 2026-05-07 23:33 | 33.67491 | -118.44526 | 10278 ft | 318 kts | 109° |
| 2026-05-07 23:33 | 33.66739 | -118.41954 | 10415 ft | 335 kts | 109° |
| 2026-05-07 23:33 | 33.65944 | -118.39257 | 10544 ft | 352 kts | 109° |
| 2026-05-07 23:33 | 33.65120 | -118.36408 | 10663 ft | 368 kts | 105° |
| 2026-05-07 23:34 | 33.64578 | -118.33349 | 10796 ft | 382 kts | 96° |
| 2026-05-07 23:34 | 33.64455 | -118.30116 | 10924 ft | 395 kts | 89° |
| 2026-05-07 23:34 | 33.64468 | -118.26781 | 11210 ft | 403 kts | 89° |
| 2026-05-07 23:34 | 33.64475 | -118.23403 | 11712 ft | 406 kts | 89° |
| 2026-05-07 23:35 | 33.64476 | -118.20007 | 12294 ft | 407 kts | 89° |
| 2026-05-07 23:35 | 33.64475 | -118.16603 | 12893 ft | 408 kts | 89° |
| 2026-05-07 23:35 | 33.64476 | -118.13187 | 13439 ft | 411 kts | 88° |
| 2026-05-07 23:35 | 33.64476 | -118.09749 | 13973 ft | 414 kts | 88° |
| 2026-05-07 23:36 | 33.64474 | -118.06285 | 14497 ft | 416 kts | 88° |
| 2026-05-07 23:36 | 33.64470 | -118.02806 | 14993 ft | 418 kts | 88° |
| 2026-05-07 23:36 | 33.64462 | -117.99308 | 15466 ft | 421 kts | 88° |
| 2026-05-07 23:36 | 33.64453 | -117.95790 | 15921 ft | 423 kts | 88° |
| 2026-05-07 23:37 | 33.64446 | -117.92257 | 16382 ft | 424 kts | 88° |
| 2026-05-07 23:37 | 33.64438 | -117.88708 | 16816 ft | 426 kts | 88° |
| 2026-05-07 23:37 | 33.64427 | -117.85139 | 17231 ft | 429 kts | 88° |
| 2026-05-07 23:37 | 33.64423 | -117.81551 | 17653 ft | 430 kts | 86° |
| 2026-05-07 23:38 | 33.64716 | -117.77985 | 18043 ft | 430 kts | 77° |
| 2026-05-07 23:38 | 33.65377 | -117.74485 | 18435 ft | 431 kts | 75° |
| 2026-05-07 23:38 | 33.66063 | -117.70982 | 18797 ft | 433 kts | 75° |
| 2026-05-07 23:38 | 33.66751 | -117.67450 | 19133 ft | 436 kts | 75° |
| 2026-05-07 23:39 | 33.67437 | -117.63897 | 19478 ft | 438 kts | 75° |
| 2026-05-07 23:39 | 33.68113 | -117.60372 | 19818 ft | 440 kts | 75° |
| 2026-05-07 23:39 | 33.68798 | -117.56777 | 20151 ft | 443 kts | 75° |
| 2026-05-07 23:39 | 33.69487 | -117.53166 | 20466 ft | 445 kts | 75° |
| 2026-05-07 23:40 | 33.70173 | -117.49554 | 20765 ft | 447 kts | 75° |
| 2026-05-07 23:40 | 33.70868 | -117.45885 | 21084 ft | 450 kts | 75° |
| 2026-05-07 23:40 | 33.71567 | -117.42211 | 21392 ft | 452 kts | 75° |
| 2026-05-07 23:40 | 33.72269 | -117.38523 | 21695 ft | 455 kts | 75° |
| 2026-05-07 23:41 | 33.72972 | -117.34812 | 22010 ft | 457 kts | 75° |
| 2026-05-07 23:41 | 33.73675 | -117.31089 | 22308 ft | 458 kts | 75° |
| 2026-05-07 23:41 | 33.74384 | -117.27349 | 22598 ft | 460 kts | 75° |
| 2026-05-07 23:41 | 33.74964 | -117.23552 | 22874 ft | 464 kts | 82° |
| 2026-05-07 23:42 | 33.75082 | -117.19664 | 23153 ft | 468 kts | 89° |
| 2026-05-07 23:42 | 33.74998 | -117.15744 | 23452 ft | 471 kts | 89° |
| 2026-05-07 23:42 | 33.74912 | -117.11809 | 23731 ft | 472 kts | 89° |
| 2026-05-07 23:42 | 33.74828 | -117.07861 | 24063 ft | 473 kts | 89° |
| 2026-05-07 23:43 | 33.74746 | -117.03916 | 24460 ft | 471 kts | 89° |
| 2026-05-07 23:43 | 33.74666 | -116.99983 | 24863 ft | 471 kts | 89° |
| 2026-05-07 23:43 | 33.74583 | -116.96058 | 25261 ft | 469 kts | 89° |
| 2026-05-07 23:43 | 33.74497 | -116.92148 | 25654 ft | 468 kts | 89° |
| 2026-05-07 23:44 | 33.74438 | -116.89564 | 25900 ft | 467 kts | 89° |
| 2026-05-07 23:44 | 33.74351 | -116.85668 | 26268 ft | 466 kts | 88° |
| 2026-05-07 23:44 | 33.74263 | -116.81778 | 26644 ft | 465 kts | 88° |
| 2026-05-07 23:44 | 33.74173 | -116.77905 | 26998 ft | 464 kts | 88° |
| 2026-05-07 23:45 | 33.74081 | -116.74035 | 27335 ft | 463 kts | 88° |
| 2026-05-07 23:45 | 33.73989 | -116.70172 | 27679 ft | 462 kts | 88° |
| 2026-05-07 23:45 | 33.73896 | -116.66321 | 28018 ft | 461 kts | 88° |
| 2026-05-07 23:45 | 33.73803 | -116.62476 | 28354 ft | 460 kts | 88° |
| 2026-05-07 23:46 | 33.73712 | -116.58640 | 28730 ft | 459 kts | 88° |
| 2026-05-07 23:46 | 33.73620 | -116.54802 | 29093 ft | 458 kts | 88° |
| 2026-05-07 23:46 | 33.73525 | -116.50984 | 29442 ft | 457 kts | 88° |
| 2026-05-07 23:46 | 33.73429 | -116.47173 | 29778 ft | 456 kts | 88° |
| 2026-05-07 23:47 | 33.73331 | -116.43373 | 30118 ft | 454 kts | 88° |
| 2026-05-07 23:47 | 33.73234 | -116.39585 | 30443 ft | 453 kts | 88° |
| 2026-05-07 23:47 | 33.73137 | -116.35808 | 30760 ft | 452 kts | 88° |
| 2026-05-07 23:47 | 33.73036 | -116.32041 | 31071 ft | 451 kts | 88° |
| 2026-05-07 23:48 | 33.72931 | -116.28284 | 31375 ft | 449 kts | 88° |
| 2026-05-07 23:48 | 33.72825 | -116.24542 | 31685 ft | 448 kts | 88° |
| 2026-05-07 23:48 | 33.72721 | -116.20811 | 31983 ft | 446 kts | 88° |
| 2026-05-07 23:48 | 33.72618 | -116.17093 | 32268 ft | 445 kts | 88° |
| 2026-05-07 23:49 | 33.72515 | -116.13388 | 32541 ft | 443 kts | 88° |
| 2026-05-07 23:49 | 33.72489 | -116.09965 | 32756 ft | 441 kts | 83° |
| 2026-05-07 23:49 | 33.73584 | -116.02899 | 32848 ft | 436 kts | 69° |
| 2026-05-07 23:50 | 33.75501 | -115.95987 | 32853 ft | 436 kts | 69° |
| 2026-05-07 23:50 | 33.77419 | -115.89088 | 32859 ft | 436 kts | 69° |
| 2026-05-07 23:51 | 33.79334 | -115.82171 | 32878 ft | 436 kts | 69° |
| 2026-05-07 23:51 | 33.81245 | -115.75250 | 32898 ft | 436 kts | 69° |
| 2026-05-07 23:52 | 33.83155 | -115.68323 | 32898 ft | 436 kts | 69° |
| 2026-05-07 23:52 | 33.85055 | -115.61396 | 32912 ft | 436 kts | 69° |
| 2026-05-07 23:53 | 33.86951 | -115.54470 | 32907 ft | 436 kts | 69° |
| 2026-05-07 23:53 | 33.88843 | -115.47536 | 32914 ft | 436 kts | 69° |
| 2026-05-07 23:54 | 33.90742 | -115.40607 | 32916 ft | 436 kts | 69° |
| 2026-05-07 23:54 | 33.92628 | -115.33672 | 32914 ft | 436 kts | 69° |
| 2026-05-07 23:55 | 33.94501 | -115.26733 | 32918 ft | 436 kts | 69° |
| 2026-05-07 23:55 | 33.96379 | -115.19798 | 32916 ft | 435 kts | 69° |
| 2026-05-07 23:56 | 33.98256 | -115.12867 | 32915 ft | 435 kts | 69° |
| 2026-05-07 23:56 | 34.00122 | -115.05934 | 32914 ft | 435 kts | 69° |
| 2026-05-07 23:57 | 34.01982 | -114.98999 | 32908 ft | 435 kts | 69° |
| 2026-05-07 23:57 | 34.03848 | -114.92066 | 32903 ft | 435 kts | 69° |
| 2026-05-07 23:58 | 34.05707 | -114.85133 | 32907 ft | 435 kts | 69° |
| 2026-05-07 23:58 | 34.07551 | -114.78199 | 32900 ft | 434 kts | 69° |
| 2026-05-07 23:59 | 34.09374 | -114.71311 | 32893 ft | 433 kts | 69° |
| 2026-05-07 23:59 | 34.11227 | -114.64400 | 32892 ft | 432 kts | 69° |
| 2026-05-08 00:00 | 34.13178 | -114.57547 | 32885 ft | 431 kts | 68° |
| 2026-05-08 00:00 | 34.14802 | -114.51914 | 32886 ft | 431 kts | 68° |
| 2026-05-08 00:01 | 34.15982 | -114.47851 | 32885 ft | 430 kts | 68° |
| 2026-05-08 00:01 | 34.17915 | -114.41015 | 32884 ft | 430 kts | 69° |
| 2026-05-08 00:02 | 34.19817 | -114.34164 | 32881 ft | 430 kts | 69° |
| 2026-05-08 00:02 | 34.21726 | -114.27314 | 32882 ft | 430 kts | 69° |
| 2026-05-08 00:03 | 34.23635 | -114.20468 | 32895 ft | 430 kts | 69° |
| 2026-05-08 00:03 | 34.25542 | -114.13621 | 32896 ft | 430 kts | 69° |
| 2026-05-08 00:04 | 34.27443 | -114.06779 | 32899 ft | 429 kts | 69° |
| 2026-05-08 00:04 | 34.29338 | -113.99936 | 32890 ft | 429 kts | 69° |
| 2026-05-08 00:05 | 34.31228 | -113.93096 | 32891 ft | 429 kts | 69° |
| 2026-05-08 00:05 | 34.33120 | -113.86254 | 32897 ft | 429 kts | 69° |
| 2026-05-08 00:06 | 34.35005 | -113.79410 | 32898 ft | 429 kts | 69° |
| 2026-05-08 00:06 | 34.36887 | -113.72561 | 32883 ft | 429 kts | 69° |
| 2026-05-08 00:07 | 34.38764 | -113.65708 | 32892 ft | 429 kts | 69° |
| 2026-05-08 00:07 | 34.40621 | -113.58892 | 32906 ft | 429 kts | 69° |
| 2026-05-08 00:08 | 34.42494 | -113.52022 | 32906 ft | 430 kts | 69° |
| 2026-05-08 00:08 | 34.44367 | -113.45149 | 32916 ft | 430 kts | 69° |
| 2026-05-08 00:09 | 34.46237 | -113.38271 | 32931 ft | 430 kts | 69° |
| 2026-05-08 00:09 | 34.48098 | -113.31370 | 33007 ft | 432 kts | 69° |
| 2026-05-08 00:10 | 34.49964 | -113.24440 | 33001 ft | 433 kts | 69° |
| 2026-05-08 00:10 | 34.51836 | -113.17499 | 33002 ft | 433 kts | 69° |
| 2026-05-08 00:11 | 34.53697 | -113.10543 | 33008 ft | 434 kts | 69° |
| 2026-05-08 00:11 | 34.55562 | -113.03575 | 33014 ft | 434 kts | 69° |
| 2026-05-08 00:12 | 34.57430 | -112.96599 | 33027 ft | 435 kts | 69° |
| 2026-05-08 00:12 | 34.59295 | -112.89615 | 33041 ft | 436 kts | 69° |
| 2026-05-08 00:13 | 34.61154 | -112.82609 | 33052 ft | 436 kts | 69° |
| 2026-05-08 00:13 | 34.63010 | -112.75605 | 33066 ft | 436 kts | 69° |
| 2026-05-08 00:14 | 34.64857 | -112.68603 | 33080 ft | 435 kts | 69° |
| 2026-05-08 00:14 | 34.66694 | -112.61615 | 33082 ft | 434 kts | 69° |
| 2026-05-08 00:15 | 34.68531 | -112.54625 | 33086 ft | 434 kts | 69° |
| 2026-05-08 00:15 | 34.70356 | -112.47691 | 33088 ft | 434 kts | 70° |
| 2026-05-08 00:16 | 34.72051 | -112.40653 | 33088 ft | 434 kts | 71° |
| 2026-05-08 00:16 | 34.73632 | -112.33570 | 33089 ft | 434 kts | 72° |
| 2026-05-08 00:17 | 34.75220 | -112.26485 | 33081 ft | 434 kts | 71° |
| 2026-05-08 00:17 | 34.76834 | -112.19413 | 33057 ft | 434 kts | 71° |
| 2026-05-08 00:18 | 34.78458 | -112.12349 | 33030 ft | 433 kts | 71° |
| 2026-05-08 00:18 | 34.80067 | -112.05290 | 33013 ft | 433 kts | 71° |
| 2026-05-08 00:19 | 34.81665 | -111.98224 | 33004 ft | 433 kts | 71° |
| 2026-05-08 00:19 | 34.83265 | -111.91149 | 33005 ft | 434 kts | 71° |
| 2026-05-08 00:20 | 34.84867 | -111.84066 | 33037 ft | 434 kts | 71° |
| 2026-05-08 00:20 | 34.86465 | -111.76967 | 33049 ft | 435 kts | 72° |
| 2026-05-08 00:21 | 34.88063 | -111.69857 | 33050 ft | 435 kts | 72° |
| 2026-05-08 00:21 | 34.89644 | -111.62801 | 33062 ft | 436 kts | 72° |
| 2026-05-08 00:22 | 34.91244 | -111.55635 | 33077 ft | 436 kts | 72° |
| 2026-05-08 00:22 | 34.92821 | -111.48544 | 33093 ft | 437 kts | 72° |
| 2026-05-08 00:23 | 34.94394 | -111.41392 | 33108 ft | 437 kts | 72° |
| 2026-05-08 00:23 | 34.95975 | -111.34239 | 33119 ft | 437 kts | 72° |
| 2026-05-08 00:24 | 34.97560 | -111.27082 | 33166 ft | 437 kts | 72° |
| 2026-05-08 00:24 | 34.99138 | -111.19898 | 33158 ft | 439 kts | 72° |
| 2026-05-08 00:25 | 35.00707 | -111.12696 | 33146 ft | 439 kts | 72° |
| 2026-05-08 00:25 | 35.02279 | -111.05495 | 33141 ft | 440 kts | 72° |
| 2026-05-08 00:26 | 35.03849 | -110.98281 | 33135 ft | 440 kts | 72° |
| 2026-05-08 00:26 | 35.05412 | -110.91068 | 33127 ft | 440 kts | 72° |
| 2026-05-08 00:27 | 35.06972 | -110.83852 | 33139 ft | 439 kts | 72° |
| 2026-05-08 00:27 | 35.08529 | -110.76623 | 33129 ft | 441 kts | 72° |
| 2026-05-08 00:28 | 35.10090 | -110.69382 | 33123 ft | 441 kts | 72° |
| 2026-05-08 00:28 | 35.11643 | -110.62128 | 33117 ft | 441 kts | 72° |
| 2026-05-08 00:29 | 35.13189 | -110.54872 | 33113 ft | 441 kts | 72° |
| 2026-05-08 00:29 | 35.14732 | -110.47610 | 33112 ft | 442 kts | 72° |
| 2026-05-08 00:30 | 35.16263 | -110.40393 | 33168 ft | 442 kts | 72° |
| 2026-05-08 00:30 | 35.17798 | -110.33123 | 33116 ft | 442 kts | 72° |
| 2026-05-08 00:31 | 35.19328 | -110.25852 | 33163 ft | 442 kts | 72° |
| 2026-05-08 00:31 | 35.20861 | -110.18563 | 33141 ft | 443 kts | 72° |
| 2026-05-08 00:32 | 35.22394 | -110.11261 | 33135 ft | 444 kts | 72° |
| 2026-05-08 00:32 | 35.23924 | -110.03941 | 33134 ft | 444 kts | 72° |
| 2026-05-08 00:33 | 35.25448 | -109.96615 | 33129 ft | 445 kts | 73° |
| 2026-05-08 00:33 | 35.26715 | -109.90506 | 33114 ft | 446 kts | 73° |
| 2026-05-08 00:34 | 35.28240 | -109.83133 | 33113 ft | 448 kts | 73° |
| 2026-05-08 00:34 | 35.29769 | -109.75733 | 33119 ft | 449 kts | 73° |
| 2026-05-08 00:35 | 35.31294 | -109.68318 | 33129 ft | 449 kts | 73° |
| 2026-05-08 00:35 | 35.32814 | -109.60886 | 33136 ft | 450 kts | 73° |
| 2026-05-08 00:36 | 35.34327 | -109.53446 | 33143 ft | 450 kts | 73° |
| 2026-05-08 00:36 | 35.35840 | -109.45998 | 33144 ft | 451 kts | 73° |
| 2026-05-08 00:37 | 35.37353 | -109.38541 | 33151 ft | 451 kts | 73° |
| 2026-05-08 00:38 | 35.39615 | -109.27339 | 33146 ft | 452 kts | 73° |
| 2026-05-08 00:38 | 35.41114 | -109.19852 | 33145 ft | 453 kts | 73° |
| 2026-05-08 00:39 | 35.42617 | -109.12355 | 33146 ft | 453 kts | 73° |
| 2026-05-08 00:39 | 35.44118 | -109.04852 | 33145 ft | 453 kts | 73° |
| 2026-05-08 00:40 | 35.45617 | -108.97342 | 33141 ft | 454 kts | 74° |
| 2026-05-08 00:40 | 35.47091 | -108.89867 | 33137 ft | 454 kts | 74° |
| 2026-05-08 00:41 | 35.48646 | -108.82357 | 33131 ft | 454 kts | 72° |
| 2026-05-08 00:41 | 35.50428 | -108.74921 | 33131 ft | 454 kts | 70° |
| 2026-05-08 00:42 | 35.52255 | -108.67482 | 33131 ft | 456 kts | 71° |
| 2026-05-08 00:42 | 35.54027 | -108.60012 | 33129 ft | 456 kts | 71° |
| 2026-05-08 00:43 | 35.55754 | -108.52503 | 33129 ft | 457 kts | 72° |
| 2026-05-08 00:43 | 35.57490 | -108.44983 | 33130 ft | 458 kts | 71° |
| 2026-05-08 00:44 | 35.59236 | -108.37454 | 33132 ft | 458 kts | 71° |
| 2026-05-08 00:44 | 35.60974 | -108.29916 | 33134 ft | 459 kts | 71° |
| 2026-05-08 00:45 | 35.62709 | -108.22366 | 33134 ft | 459 kts | 71° |
| 2026-05-08 00:45 | 35.64437 | -108.14809 | 33140 ft | 459 kts | 71° |
| 2026-05-08 00:46 | 35.66161 | -108.07242 | 33142 ft | 460 kts | 71° |
| 2026-05-08 00:46 | 35.67890 | -107.99671 | 33142 ft | 460 kts | 71° |
| 2026-05-08 00:47 | 35.69617 | -107.92096 | 33136 ft | 460 kts | 72° |
| 2026-05-08 00:47 | 35.71333 | -107.84499 | 33132 ft | 461 kts | 72° |
| 2026-05-08 00:48 | 35.73053 | -107.76890 | 33132 ft | 461 kts | 72° |
| 2026-05-08 00:48 | 35.74766 | -107.69279 | 33124 ft | 462 kts | 72° |
| 2026-05-08 00:49 | 35.76467 | -107.61654 | 33118 ft | 462 kts | 72° |
| 2026-05-08 00:49 | 35.78166 | -107.54051 | 33114 ft | 462 kts | 72° |
| 2026-05-08 00:50 | 35.79875 | -107.46409 | 33108 ft | 463 kts | 72° |
| 2026-05-08 00:50 | 35.81577 | -107.38750 | 33102 ft | 464 kts | 72° |
| 2026-05-08 00:51 | 35.83267 | -107.31075 | 33103 ft | 465 kts | 72° |
| 2026-05-08 00:51 | 35.84954 | -107.23423 | 33091 ft | 466 kts | 72° |
| 2026-05-08 00:52 | 35.86652 | -107.15695 | 33088 ft | 467 kts | 73° |
| 2026-05-08 00:52 | 35.88343 | -107.07949 | 33089 ft | 468 kts | 73° |
| 2026-05-08 00:53 | 35.90039 | -107.00185 | 33116 ft | 470 kts | 73° |
| 2026-05-08 00:53 | 35.91737 | -106.92391 | 33129 ft | 471 kts | 73° |
| 2026-05-08 00:54 | 35.93433 | -106.84575 | 33133 ft | 472 kts | 73° |
| 2026-05-08 00:54 | 35.95127 | -106.76749 | 33126 ft | 472 kts | 73° |
| 2026-05-08 00:55 | 35.96816 | -106.68908 | 33117 ft | 473 kts | 73° |
| 2026-05-08 00:55 | 35.98498 | -106.61054 | 33111 ft | 474 kts | 73° |
| 2026-05-08 00:56 | 36.00182 | -106.53184 | 33107 ft | 474 kts | 73° |
| 2026-05-08 00:56 | 36.01858 | -106.45307 | 33111 ft | 474 kts | 73° |
| 2026-05-08 00:57 | 36.03525 | -106.37433 | 33115 ft | 474 kts | 73° |
| 2026-05-08 00:57 | 36.05196 | -106.29554 | 33114 ft | 474 kts | 73° |
| 2026-05-08 00:58 | 36.06857 | -106.21676 | 33113 ft | 473 kts | 73° |
| 2026-05-08 00:58 | 36.08503 | -106.13856 | 33112 ft | 473 kts | 73° |
| 2026-05-08 00:59 | 36.10154 | -106.05971 | 33113 ft | 474 kts | 73° |
| 2026-05-08 00:59 | 36.11794 | -105.98076 | 33122 ft | 474 kts | 73° |
| 2026-05-08 01:00 | 36.13435 | -105.90179 | 33131 ft | 474 kts | 73° |
| 2026-05-08 01:00 | 36.15078 | -105.82277 | 33138 ft | 474 kts | 73° |
| 2026-05-08 01:01 | 36.16712 | -105.74371 | 33139 ft | 474 kts | 73° |
| 2026-05-08 01:01 | 36.18338 | -105.66453 | 33143 ft | 475 kts | 73° |
| 2026-05-08 01:02 | 36.19957 | -105.58527 | 33146 ft | 475 kts | 73° |
| 2026-05-08 01:02 | 36.21579 | -105.50597 | 33148 ft | 475 kts | 73° |
| 2026-05-08 01:03 | 36.23197 | -105.42657 | 33145 ft | 476 kts | 73° |
| 2026-05-08 01:03 | 36.24799 | -105.34696 | 33148 ft | 477 kts | 73° |
| 2026-05-08 01:04 | 36.26416 | -105.26724 | 33170 ft | 478 kts | 73° |
| 2026-05-08 01:04 | 36.28030 | -105.18725 | 33160 ft | 479 kts | 73° |
| 2026-05-08 01:05 | 36.29638 | -105.10707 | 33148 ft | 480 kts | 74° |
| 2026-05-08 01:05 | 36.31237 | -105.02667 | 33150 ft | 481 kts | 74° |
| 2026-05-08 01:06 | 36.32836 | -104.94607 | 33140 ft | 482 kts | 74° |
| 2026-05-08 01:06 | 36.34439 | -104.86523 | 33133 ft | 483 kts | 74° |
| 2026-05-08 01:07 | 36.36034 | -104.78476 | 33127 ft | 484 kts | 74° |
| 2026-05-08 01:07 | 36.37633 | -104.70353 | 33116 ft | 485 kts | 74° |
| 2026-05-08 01:08 | 36.39227 | -104.62212 | 33103 ft | 486 kts | 75° |
| 2026-05-08 01:08 | 36.40817 | -104.54052 | 33092 ft | 487 kts | 75° |
| 2026-05-08 01:09 | 36.42400 | -104.45877 | 33087 ft | 487 kts | 75° |
| 2026-05-08 01:09 | 36.43987 | -104.37688 | 33080 ft | 488 kts | 75° |
| 2026-05-08 01:10 | 36.45572 | -104.29489 | 33077 ft | 489 kts | 75° |
| 2026-05-08 01:10 | 36.47152 | -104.21275 | 33077 ft | 489 kts | 75° |
| 2026-05-08 01:11 | 36.48731 | -104.13050 | 33077 ft | 490 kts | 75° |
| 2026-05-08 01:11 | 36.50299 | -104.04815 | 33077 ft | 490 kts | 75° |
| 2026-05-08 01:12 | 36.51858 | -103.96574 | 33076 ft | 490 kts | 75° |
| 2026-05-08 01:12 | 36.53426 | -103.88314 | 33060 ft | 491 kts | 75° |
| 2026-05-08 01:13 | 36.54994 | -103.80034 | 33052 ft | 493 kts | 75° |
| 2026-05-08 01:13 | 36.56544 | -103.71726 | 33050 ft | 493 kts | 76° |
| 2026-05-08 01:14 | 36.58059 | -103.63563 | 33042 ft | 494 kts | 76° |
| 2026-05-08 01:14 | 36.59619 | -103.55150 | 33035 ft | 495 kts | 76° |
| 2026-05-08 01:15 | 36.61172 | -103.46796 | 33027 ft | 496 kts | 75° |
| 2026-05-08 01:15 | 36.62725 | -103.38419 | 33024 ft | 497 kts | 75° |
| 2026-05-08 01:16 | 36.64264 | -103.30017 | 33021 ft | 499 kts | 76° |
| 2026-05-08 01:16 | 36.65801 | -103.21579 | 33029 ft | 500 kts | 76° |
| 2026-05-08 01:17 | 36.67347 | -103.13121 | 33022 ft | 501 kts | 76° |
| 2026-05-08 01:17 | 36.68883 | -103.04638 | 33015 ft | 503 kts | 76° |
| 2026-05-08 01:18 | 36.70412 | -102.96123 | 33012 ft | 504 kts | 76° |
| 2026-05-08 01:18 | 36.71944 | -102.87578 | 33010 ft | 506 kts | 76° |
| 2026-05-08 01:19 | 36.73492 | -102.79002 | 33011 ft | 508 kts | 76° |
| 2026-05-08 01:19 | 36.75034 | -102.70396 | 33006 ft | 509 kts | 76° |
| 2026-05-08 01:20 | 36.76565 | -102.61761 | 33001 ft | 510 kts | 76° |
| 2026-05-08 01:20 | 36.78084 | -102.53102 | 32997 ft | 512 kts | 76° |
| 2026-05-08 01:21 | 36.79593 | -102.44477 | 32995 ft | 513 kts | 76° |
| 2026-05-08 01:21 | 36.81123 | -102.35778 | 32992 ft | 514 kts | 76° |
| 2026-05-08 01:22 | 36.82642 | -102.27061 | 32984 ft | 514 kts | 76° |
| 2026-05-08 01:22 | 36.84157 | -102.18326 | 32995 ft | 515 kts | 76° |
| 2026-05-08 01:23 | 36.85678 | -102.09583 | 32999 ft | 516 kts | 76° |
| 2026-05-08 01:23 | 36.86934 | -102.02243 | 33001 ft | 516 kts | 76° |
| 2026-05-08 01:24 | 36.88425 | -101.93526 | 32985 ft | 518 kts | 77° |
| 2026-05-08 01:24 | 36.89937 | -101.84642 | 32982 ft | 521 kts | 77° |
| 2026-05-08 01:25 | 36.91434 | -101.75780 | 32986 ft | 522 kts | 77° |
| 2026-05-08 01:25 | 36.92929 | -101.66942 | 32988 ft | 524 kts | 77° |
| 2026-05-08 01:26 | 36.94426 | -101.58026 | 32997 ft | 525 kts | 77° |
| 2026-05-08 01:26 | 36.95917 | -101.49093 | 32997 ft | 525 kts | 77° |
| 2026-05-08 01:27 | 36.97396 | -101.40155 | 32982 ft | 525 kts | 77° |
| 2026-05-08 01:27 | 36.98869 | -101.31236 | 32984 ft | 526 kts | 77° |
| 2026-05-08 01:28 | 37.00342 | -101.22277 | 32977 ft | 526 kts | 77° |
| 2026-05-08 01:28 | 37.01810 | -101.13302 | 32981 ft | 527 kts | 77° |
| 2026-05-08 01:29 | 37.03282 | -101.04317 | 32976 ft | 528 kts | 77° |
| 2026-05-08 01:29 | 37.04775 | -100.95322 | 32979 ft | 528 kts | 76° |
| 2026-05-08 01:30 | 37.06619 | -100.86429 | 32975 ft | 528 kts | 72° |
| 2026-05-08 01:30 | 37.08728 | -100.77616 | 32968 ft | 529 kts | 71° |
| 2026-05-08 01:31 | 37.10809 | -100.68775 | 32979 ft | 530 kts | 72° |
| 2026-05-08 01:31 | 37.12766 | -100.59873 | 32982 ft | 531 kts | 73° |
| 2026-05-08 01:32 | 37.14670 | -100.50932 | 32978 ft | 531 kts | 73° |
| 2026-05-08 01:32 | 37.16599 | -100.41987 | 32982 ft | 532 kts | 73° |
| 2026-05-08 01:33 | 37.18552 | -100.33042 | 32983 ft | 532 kts | 73° |
| 2026-05-08 01:33 | 37.20497 | -100.24099 | 32974 ft | 532 kts | 73° |
| 2026-05-08 01:34 | 37.22434 | -100.15138 | 32969 ft | 532 kts | 73° |
| 2026-05-08 01:34 | 37.24358 | -100.06175 | 32982 ft | 532 kts | 73° |
| 2026-05-08 01:35 | 37.26270 | -99.97197 | 32982 ft | 533 kts | 73° |
| 2026-05-08 01:35 | 37.28185 | -99.88196 | 32957 ft | 534 kts | 73° |
| 2026-05-08 01:36 | 37.30086 | -99.79230 | 32957 ft | 536 kts | 73° |
| 2026-05-08 01:36 | 37.31996 | -99.70188 | 32955 ft | 536 kts | 73° |
| 2026-05-08 01:37 | 37.33914 | -99.61117 | 32958 ft | 537 kts | 73° |
| 2026-05-08 01:37 | 37.35826 | -99.52034 | 32959 ft | 538 kts | 73° |
| 2026-05-08 01:38 | 37.37717 | -99.42929 | 32963 ft | 539 kts | 74° |
| 2026-05-08 01:38 | 37.39605 | -99.33806 | 32963 ft | 539 kts | 74° |
| 2026-05-08 01:39 | 37.41505 | -99.24681 | 32959 ft | 539 kts | 74° |
| 2026-05-08 01:39 | 37.43395 | -99.15547 | 32956 ft | 540 kts | 74° |
| 2026-05-08 01:40 | 37.45281 | -99.06391 | 32948 ft | 541 kts | 74° |
| 2026-05-08 01:40 | 37.47151 | -98.97208 | 32945 ft | 542 kts | 74° |
| 2026-05-08 01:41 | 37.49007 | -98.88013 | 32947 ft | 542 kts | 75° |
| 2026-05-08 01:41 | 37.50862 | -98.78802 | 32950 ft | 543 kts | 75° |
| 2026-05-08 01:42 | 37.52729 | -98.69592 | 32946 ft | 543 kts | 75° |
| 2026-05-08 01:42 | 37.54589 | -98.60367 | 32949 ft | 543 kts | 75° |
| 2026-05-08 01:43 | 37.56443 | -98.51128 | 32952 ft | 544 kts | 75° |
| 2026-05-08 01:43 | 37.58284 | -98.41879 | 32949 ft | 544 kts | 75° |
| 2026-05-08 01:44 | 37.60108 | -98.32621 | 32949 ft | 544 kts | 75° |
| 2026-05-08 01:44 | 37.61931 | -98.23367 | 32946 ft | 544 kts | 75° |
| 2026-05-08 01:45 | 37.63754 | -98.14110 | 32948 ft | 543 kts | 75° |
| 2026-05-08 01:45 | 37.65569 | -98.04857 | 32945 ft | 543 kts | 75° |
| 2026-05-08 01:46 | 37.67356 | -97.95673 | 32941 ft | 543 kts | 75° |
| 2026-05-08 01:46 | 37.69146 | -97.86416 | 32925 ft | 543 kts | 75° |
| 2026-05-08 01:47 | 37.70930 | -97.77157 | 32926 ft | 543 kts | 75° |
| 2026-05-08 01:47 | 37.72715 | -97.67889 | 32927 ft | 543 kts | 76° |
| 2026-05-08 01:48 | 37.75364 | -97.53964 | 32920 ft | 544 kts | 76° |
| 2026-05-08 01:48 | 37.77128 | -97.44663 | 32920 ft | 545 kts | 76° |
| 2026-05-08 01:49 | 37.78887 | -97.35341 | 32923 ft | 546 kts | 76° |
| 2026-05-08 01:49 | 37.80638 | -97.26004 | 32922 ft | 546 kts | 76° |
| 2026-05-08 01:50 | 37.82374 | -97.16652 | 32919 ft | 547 kts | 76° |
| 2026-05-08 01:50 | 37.84125 | -97.07282 | 32920 ft | 547 kts | 76° |
| 2026-05-08 01:51 | 37.85865 | -96.97898 | 32920 ft | 549 kts | 76° |
| 2026-05-08 01:51 | 37.87587 | -96.88476 | 32920 ft | 550 kts | 76° |
| 2026-05-08 01:52 | 37.89306 | -96.79035 | 32929 ft | 551 kts | 76° |
| 2026-05-08 01:52 | 37.91013 | -96.69645 | 32936 ft | 551 kts | 76° |
| 2026-05-08 01:53 | 37.92729 | -96.60197 | 32942 ft | 551 kts | 76° |
| 2026-05-08 01:53 | 37.94445 | -96.50728 | 32946 ft | 551 kts | 76° |
| 2026-05-08 01:54 | 37.96141 | -96.41253 | 32950 ft | 551 kts | 76° |
| 2026-05-08 01:54 | 37.97829 | -96.31774 | 32955 ft | 551 kts | 76° |
| 2026-05-08 01:55 | 37.99520 | -96.22296 | 32956 ft | 551 kts | 76° |
| 2026-05-08 01:55 | 38.01197 | -96.12826 | 32955 ft | 550 kts | 77° |
| 2026-05-08 01:56 | 38.02854 | -96.03351 | 32953 ft | 550 kts | 76° |
| 2026-05-08 01:56 | 38.04505 | -95.93877 | 32952 ft | 550 kts | 77° |
| 2026-05-08 01:57 | 38.06151 | -95.84412 | 32952 ft | 549 kts | 77° |
| 2026-05-08 01:57 | 38.07796 | -95.74937 | 32949 ft | 550 kts | 77° |
| 2026-05-08 01:58 | 38.09436 | -95.65466 | 32950 ft | 549 kts | 77° |
| 2026-05-08 01:58 | 38.11065 | -95.55992 | 32948 ft | 549 kts | 77° |
| 2026-05-08 01:59 | 38.12678 | -95.46511 | 32947 ft | 549 kts | 77° |
| 2026-05-08 01:59 | 38.14286 | -95.37027 | 32951 ft | 549 kts | 77° |
| 2026-05-08 02:00 | 38.15888 | -95.27535 | 32947 ft | 550 kts | 77° |
| 2026-05-08 02:00 | 38.17483 | -95.18031 | 32944 ft | 550 kts | 77° |
| 2026-05-08 02:01 | 38.19074 | -95.08522 | 32940 ft | 551 kts | 77° |
| 2026-05-08 02:01 | 38.20661 | -94.98991 | 32937 ft | 551 kts | 77° |
| 2026-05-08 02:02 | 38.22236 | -94.89449 | 32936 ft | 552 kts | 77° |
| 2026-05-08 02:02 | 38.23808 | -94.79888 | 32937 ft | 553 kts | 77° |
| 2026-05-08 02:03 | 38.25373 | -94.70310 | 32943 ft | 554 kts | 77° |
| 2026-05-08 02:03 | 38.26932 | -94.60711 | 32956 ft | 555 kts | 77° |
| 2026-05-08 02:04 | 38.28477 | -94.51153 | 32969 ft | 555 kts | 77° |
| 2026-05-08 02:04 | 38.30027 | -94.41518 | 32975 ft | 556 kts | 77° |
| 2026-05-08 02:05 | 38.31577 | -94.31872 | 32988 ft | 556 kts | 77° |
| 2026-05-08 02:05 | 38.33121 | -94.22206 | 32981 ft | 557 kts | 77° |
| 2026-05-08 02:06 | 38.34653 | -94.12531 | 32988 ft | 557 kts | 77° |
| 2026-05-08 02:06 | 38.36167 | -94.02849 | 32989 ft | 557 kts | 77° |
| 2026-05-08 02:07 | 38.37679 | -93.93166 | 32986 ft | 557 kts | 77° |
| 2026-05-08 02:07 | 38.39190 | -93.83470 | 32983 ft | 558 kts | 77° |
| 2026-05-08 02:08 | 38.40690 | -93.73759 | 32982 ft | 558 kts | 77° |
| 2026-05-08 02:08 | 38.42187 | -93.64045 | 32986 ft | 558 kts | 77° |
| 2026-05-08 02:09 | 38.43680 | -93.54330 | 32988 ft | 558 kts | 77° |
| 2026-05-08 02:09 | 38.45152 | -93.44609 | 32998 ft | 558 kts | 77° |
| 2026-05-08 02:10 | 38.46367 | -93.36518 | 33006 ft | 559 kts | 77° |
| 2026-05-08 02:10 | 38.47828 | -93.26775 | 33010 ft | 559 kts | 77° |
| 2026-05-08 02:11 | 38.49286 | -93.17028 | 33011 ft | 559 kts | 77° |
| 2026-05-08 02:11 | 38.50742 | -93.07272 | 33013 ft | 559 kts | 77° |
| 2026-05-08 02:12 | 38.52189 | -92.97508 | 33016 ft | 560 kts | 77° |
| 2026-05-08 02:12 | 38.53623 | -92.87735 | 33015 ft | 560 kts | 77° |
| 2026-05-08 02:13 | 38.55053 | -92.77946 | 33015 ft | 561 kts | 77° |
| 2026-05-08 02:13 | 38.56475 | -92.68147 | 33014 ft | 561 kts | 78° |
| 2026-05-08 02:14 | 38.57889 | -92.58326 | 33014 ft | 562 kts | 78° |
| 2026-05-08 02:14 | 38.59302 | -92.48492 | 33016 ft | 563 kts | 78° |
| 2026-05-08 02:15 | 38.60707 | -92.38644 | 33016 ft | 564 kts | 78° |
| 2026-05-08 02:15 | 38.62101 | -92.28779 | 33020 ft | 565 kts | 78° |
| 2026-05-08 02:16 | 38.63493 | -92.18877 | 33025 ft | 565 kts | 78° |
| 2026-05-08 02:16 | 38.64879 | -92.08978 | 33024 ft | 566 kts | 78° |
| 2026-05-08 02:17 | 38.66252 | -91.99061 | 33023 ft | 566 kts | 78° |
| 2026-05-08 02:17 | 38.67619 | -91.89137 | 33026 ft | 567 kts | 78° |
| 2026-05-08 02:18 | 38.68979 | -91.79205 | 33030 ft | 567 kts | 78° |
| 2026-05-08 02:18 | 38.70313 | -91.69338 | 33033 ft | 566 kts | 78° |
| 2026-05-08 02:19 | 38.71667 | -91.59335 | 33030 ft | 566 kts | 78° |
| 2026-05-08 02:19 | 38.73010 | -91.49409 | 33028 ft | 565 kts | 78° |
| 2026-05-08 02:20 | 38.74335 | -91.39484 | 33032 ft | 565 kts | 78° |
| 2026-05-08 02:20 | 38.75632 | -91.29633 | 33025 ft | 564 kts | 78° |
| 2026-05-08 02:21 | 38.76936 | -91.19720 | 33031 ft | 564 kts | 78° |
| 2026-05-08 02:21 | 38.78232 | -91.09821 | 33031 ft | 563 kts | 78° |
| 2026-05-08 02:22 | 38.79518 | -90.99920 | 33029 ft | 563 kts | 79° |
| 2026-05-08 02:22 | 38.80792 | -90.90015 | 33024 ft | 563 kts | 79° |
| 2026-05-08 02:23 | 38.82059 | -90.80113 | 33026 ft | 563 kts | 79° |
| 2026-05-08 02:23 | 38.83323 | -90.70204 | 33025 ft | 563 kts | 79° |
| 2026-05-08 02:24 | 38.84571 | -90.60295 | 33025 ft | 562 kts | 79° |
| 2026-05-08 02:24 | 38.85795 | -90.50389 | 33020 ft | 563 kts | 82° |
| 2026-05-08 02:25 | 38.86017 | -90.40364 | 33015 ft | 563 kts | 91° |
| 2026-05-08 02:25 | 38.85923 | -90.30324 | 33013 ft | 563 kts | 91° |
| 2026-05-08 02:26 | 38.85831 | -90.20269 | 33008 ft | 564 kts | 91° |
| 2026-05-08 02:26 | 38.85729 | -90.10205 | 33016 ft | 565 kts | 91° |
| 2026-05-08 02:27 | 38.85614 | -90.00124 | 33025 ft | 565 kts | 91° |
| 2026-05-08 02:27 | 38.85491 | -89.90037 | 33021 ft | 566 kts | 91° |
| 2026-05-08 02:28 | 38.85354 | -89.79936 | 33022 ft | 567 kts | 91° |
| 2026-05-08 02:28 | 38.85202 | -89.69827 | 33025 ft | 567 kts | 91° |
| 2026-05-08 02:29 | 38.85046 | -89.59718 | 33031 ft | 567 kts | 92° |
| 2026-05-08 02:29 | 38.84899 | -89.49607 | 33035 ft | 567 kts | 91° |
| 2026-05-08 02:30 | 38.84737 | -89.39495 | 33038 ft | 567 kts | 92° |
| 2026-05-08 02:30 | 38.84558 | -89.29447 | 33038 ft | 567 kts | 92° |
| 2026-05-08 02:31 | 38.84362 | -89.19330 | 33051 ft | 567 kts | 92° |
| 2026-05-08 02:31 | 38.84160 | -89.09217 | 33051 ft | 567 kts | 92° |
| 2026-05-08 02:32 | 38.83957 | -88.99100 | 33053 ft | 568 kts | 92° |
| 2026-05-08 02:32 | 38.83756 | -88.88980 | 33056 ft | 568 kts | 92° |
| 2026-05-08 02:33 | 38.83540 | -88.78856 | 33053 ft | 568 kts | 92° |
| 2026-05-08 02:33 | 38.83300 | -88.68726 | 33054 ft | 569 kts | 92° |
| 2026-05-08 02:34 | 38.83057 | -88.58583 | 33052 ft | 569 kts | 92° |
| 2026-05-08 02:34 | 38.82819 | -88.48429 | 33052 ft | 570 kts | 92° |
| 2026-05-08 02:35 | 38.82573 | -88.38266 | 33051 ft | 571 kts | 92° |
| 2026-05-08 02:35 | 38.82303 | -88.28097 | 33053 ft | 571 kts | 93° |
| 2026-05-08 02:36 | 38.82024 | -88.17912 | 33055 ft | 572 kts | 93° |
| 2026-05-08 02:36 | 38.81734 | -88.07728 | 33059 ft | 572 kts | 93° |
| 2026-05-08 02:37 | 38.81438 | -87.97527 | 33064 ft | 573 kts | 93° |
| 2026-05-08 02:37 | 38.81141 | -87.87382 | 33055 ft | 574 kts | 92° |
| 2026-05-08 02:38 | 38.80857 | -87.77143 | 33056 ft | 575 kts | 93° |
| 2026-05-08 02:38 | 38.80513 | -87.66903 | 33059 ft | 575 kts | 94° |
| 2026-05-08 02:39 | 38.80156 | -87.56652 | 33062 ft | 576 kts | 94° |
| 2026-05-08 02:39 | 38.79814 | -87.46398 | 33067 ft | 576 kts | 93° |
| 2026-05-08 02:40 | 38.79471 | -87.36131 | 33071 ft | 576 kts | 94° |
| 2026-05-08 02:40 | 38.79114 | -87.25864 | 33070 ft | 577 kts | 94° |
| 2026-05-08 02:41 | 38.78744 | -87.15599 | 33075 ft | 577 kts | 94° |
| 2026-05-08 02:41 | 38.78368 | -87.05317 | 33081 ft | 577 kts | 94° |
| 2026-05-08 02:42 | 38.77986 | -86.95038 | 33079 ft | 577 kts | 94° |
| 2026-05-08 02:42 | 38.77596 | -86.84762 | 33073 ft | 577 kts | 94° |
| 2026-05-08 02:43 | 38.77193 | -86.74478 | 33071 ft | 578 kts | 94° |
| 2026-05-08 02:43 | 38.76770 | -86.64180 | 33078 ft | 579 kts | 94° |
| 2026-05-08 02:44 | 38.76340 | -86.53871 | 33075 ft | 580 kts | 94° |
| 2026-05-08 02:44 | 38.76226 | -86.43553 | 33074 ft | 579 kts | 84° |
| 2026-05-08 02:45 | 38.77611 | -86.33420 | 33070 ft | 578 kts | 76° |
| 2026-05-08 02:45 | 38.79200 | -86.23319 | 33068 ft | 579 kts | 76° |
| 2026-05-08 02:46 | 38.80764 | -86.13200 | 33070 ft | 579 kts | 76° |
| 2026-05-08 02:46 | 38.82311 | -86.03133 | 33074 ft | 579 kts | 76° |
| 2026-05-08 02:47 | 38.83859 | -85.92989 | 33073 ft | 580 kts | 76° |
| 2026-05-08 02:47 | 38.85407 | -85.82838 | 33069 ft | 581 kts | 76° |
| 2026-05-08 02:48 | 38.86945 | -85.72665 | 33075 ft | 581 kts | 76° |
| 2026-05-08 02:48 | 38.88464 | -85.62472 | 33081 ft | 582 kts | 77° |
| 2026-05-08 02:49 | 38.89982 | -85.52280 | 33095 ft | 581 kts | 77° |
| 2026-05-08 02:49 | 38.91502 | -85.42095 | 33097 ft | 581 kts | 77° |
| 2026-05-08 02:50 | 38.93004 | -85.31903 | 33097 ft | 581 kts | 77° |
| 2026-05-08 02:50 | 38.94487 | -85.21707 | 33091 ft | 581 kts | 77° |
| 2026-05-08 02:51 | 38.95980 | -85.11507 | 33088 ft | 581 kts | 77° |
| 2026-05-08 02:51 | 38.97461 | -85.01305 | 33083 ft | 581 kts | 77° |
| 2026-05-08 02:52 | 38.98929 | -84.91092 | 33074 ft | 581 kts | 77° |
| 2026-05-08 02:52 | 39.00388 | -84.80914 | 33073 ft | 581 kts | 77° |
| 2026-05-08 02:53 | 39.02279 | -84.70860 | 33067 ft | 575 kts | 65° |
| 2026-05-08 02:53 | 39.05867 | -84.61836 | 33063 ft | 559 kts | 47° |
| 2026-05-08 02:54 | 39.10412 | -84.53773 | 33068 ft | 556 kts | 46° |
| 2026-05-08 02:54 | 39.14955 | -84.45698 | 33072 ft | 557 kts | 46° |
| 2026-05-08 02:55 | 39.17220 | -84.41650 | 32883 ft | 556 kts | 46° |
| 2026-05-08 02:55 | 39.21731 | -84.33566 | 32389 ft | 554 kts | 46° |
| 2026-05-08 02:55 | 39.23947 | -84.29588 | 31926 ft | 554 kts | 46° |
| 2026-05-08 02:56 | 39.26218 | -84.25521 | 30638 ft | 563 kts | 46° |
| 2026-05-08 02:56 | 39.28496 | -84.21422 | 29953 ft | 561 kts | 48° |
| 2026-05-08 02:56 | 39.30515 | -84.17104 | 28886 ft | 565 kts | 57° |
| 2026-05-08 02:56 | 39.32275 | -84.12548 | 27542 ft | 567 kts | 58° |
| 2026-05-08 02:57 | 39.34020 | -84.07977 | 26168 ft | 568 kts | 58° |
| 2026-05-08 02:57 | 39.35756 | -84.03409 | 24980 ft | 564 kts | 58° |
| 2026-05-08 02:57 | 39.37472 | -83.98892 | 23884 ft | 557 kts | 58° |
| 2026-05-08 02:57 | 39.39170 | -83.94430 | 22957 ft | 547 kts | 59° |
| 2026-05-08 02:58 | 39.40273 | -83.91533 | 22414 ft | 538 kts | 59° |
| 2026-05-08 02:58 | 39.41909 | -83.87238 | 21570 ft | 526 kts | 59° |
| 2026-05-08 02:58 | 39.43512 | -83.83046 | 20744 ft | 514 kts | 59° |
| 2026-05-08 02:58 | 39.45079 | -83.78952 | 19927 ft | 502 kts | 59° |
| 2026-05-08 02:59 | 39.46604 | -83.74957 | 19140 ft | 489 kts | 59° |
| 2026-05-08 02:59 | 39.48089 | -83.71056 | 18372 ft | 477 kts | 59° |
| 2026-05-08 02:59 | 39.49535 | -83.67252 | 17604 ft | 465 kts | 59° |
| 2026-05-08 02:59 | 39.50945 | -83.63535 | 16841 ft | 455 kts | 59° |
| 2026-05-08 03:00 | 39.52321 | -83.59895 | 16119 ft | 445 kts | 59° |
| 2026-05-08 03:00 | 39.53670 | -83.56331 | 15396 ft | 436 kts | 59° |
| 2026-05-08 03:00 | 39.54992 | -83.52837 | 14726 ft | 427 kts | 59° |
| 2026-05-08 03:00 | 39.56293 | -83.49401 | 14064 ft | 423 kts | 59° |
| 2026-05-08 03:01 | 39.57595 | -83.46012 | 13443 ft | 416 kts | 57° |
| 2026-05-08 03:01 | 39.59150 | -83.42908 | 12850 ft | 407 kts | 47° |
| 2026-05-08 03:01 | 39.61009 | -83.40202 | 12264 ft | 398 kts | 38° |
| 2026-05-08 03:01 | 39.63100 | -83.37918 | 11688 ft | 389 kts | 32° |
| 2026-05-08 03:02 | 39.65211 | -83.35784 | 11341 ft | 378 kts | 33° |
| 2026-05-08 03:02 | 39.67234 | -83.33723 | 11216 ft | 362 kts | 33° |
| 2026-05-08 03:02 | 39.69167 | -83.31742 | 11090 ft | 347 kts | 33° |
| 2026-05-08 03:02 | 39.71019 | -83.29831 | 10962 ft | 334 kts | 36° |
| 2026-05-08 03:03 | 39.72629 | -83.27718 | 10837 ft | 326 kts | 46° |
| 2026-05-08 03:03 | 39.73924 | -83.25350 | 10708 ft | 317 kts | 52° |
| 2026-05-08 03:03 | 39.75110 | -83.23021 | 10472 ft | 311 kts | 52° |
| 2026-05-08 03:03 | 39.76289 | -83.20705 | 10304 ft | 304 kts | 52° |
| 2026-05-08 03:04 | 39.77460 | -83.18412 | 10243 ft | 305 kts | 52° |
| 2026-05-08 03:04 | 39.78633 | -83.16116 | 10148 ft | 305 kts | 52° |
| 2026-05-08 03:04 | 39.79805 | -83.13827 | 10019 ft | 303 kts | 52° |
| 2026-05-08 03:04 | 39.80986 | -83.11550 | 9670 ft | 304 kts | 52° |
| 2026-05-08 03:05 | 39.82173 | -83.09274 | 9297 ft | 303 kts | 53° |
| 2026-05-08 03:05 | 39.83346 | -83.07021 | 8986 ft | 300 kts | 53° |
| 2026-05-08 03:05 | 39.84516 | -83.04765 | 8606 ft | 298 kts | 53° |
| 2026-05-08 03:05 | 39.85667 | -83.02540 | 8210 ft | 295 kts | 53° |
| 2026-05-08 03:06 | 39.86807 | -83.00328 | 7748 ft | 294 kts | 53° |
| 2026-05-08 03:06 | 39.87937 | -82.98133 | 7297 ft | 290 kts | 53° |
| 2026-05-08 03:06 | 39.89055 | -82.95963 | 6834 ft | 288 kts | 53° |
| 2026-05-08 03:06 | 39.90068 | -82.93718 | 6446 ft | 288 kts | 65° |
| 2026-05-08 03:07 | 39.90549 | -82.91225 | 6285 ft | 282 kts | 83° |
| 2026-05-08 03:07 | 39.90510 | -82.88715 | 6151 ft | 273 kts | 92° |
| 2026-05-08 03:07 | 39.90381 | -82.86293 | 6036 ft | 262 kts | 92° |
| 2026-05-08 03:07 | 39.90260 | -82.83989 | 5908 ft | 249 kts | 92° |
| 2026-05-08 03:08 | 39.90152 | -82.81776 | 5671 ft | 242 kts | 92° |
| 2026-05-08 03:08 | 39.90048 | -82.79614 | 5252 ft | 236 kts | 91° |
| 2026-05-08 03:08 | 39.89945 | -82.77476 | 4676 ft | 236 kts | 91° |
| 2026-05-08 03:08 | 39.89842 | -82.75350 | 4111 ft | 235 kts | 91° |
| 2026-05-08 03:09 | 39.89738 | -82.73239 | 3564 ft | 233 kts | 91° |
| 2026-05-08 03:09 | 39.89757 | -82.71162 | 3074 ft | 226 kts | 73° |
| 2026-05-08 03:09 | 39.90545 | -82.69471 | 2998 ft | 219 kts | 37° |
| 2026-05-08 03:09 | 39.91831 | -82.68461 | 3008 ft | 215 kts | 20° |
| 2026-05-08 03:10 | 39.93240 | -82.67931 | 3006 ft | 213 kts | 9° |
| 2026-05-08 03:10 | 39.94722 | -82.67655 | 3007 ft | 217 kts | 3° |
| 2026-05-08 03:10 | 39.96221 | -82.67690 | 3003 ft | 215 kts | 344° |
| 2026-05-08 03:10 | 39.97490 | -82.68663 | 3009 ft | 214 kts | 313° |
| 2026-05-08 03:11 | 39.98156 | -82.70320 | 3001 ft | 199 kts | 281° |
| 2026-05-08 03:11 | 39.98280 | -82.72050 | 3021 ft | 185 kts | 275° |
| 2026-05-08 03:11 | 39.98370 | -82.73623 | 2854 ft | 166 kts | 274° |
| 2026-05-08 03:11 | 39.98455 | -82.75097 | 2659 ft | 160 kts | 274° |
| 2026-05-08 03:12 | 39.98526 | -82.76535 | 2514 ft | 159 kts | 273° |
| 2026-05-08 03:12 | 39.98605 | -82.77972 | 2387 ft | 158 kts | 273° |
| 2026-05-08 03:12 | 39.98702 | -82.79415 | 2127 ft | 160 kts | 274° |
| 2026-05-08 03:12 | 39.98792 | -82.80863 | 1938 ft | 160 kts | 272° |
| 2026-05-08 03:13 | 39.98869 | -82.82311 | 1728 ft | 160 kts | 273° |
| 2026-05-08 03:13 | 39.98951 | -82.83759 | 1449 ft | 160 kts | 274° |
| 2026-05-08 03:13 | 39.99035 | -82.85200 | 1173 ft | 158 kts | 273° |
| 2026-05-08 03:13 | 39.99123 | -82.86633 | 956 ft | 158 kts | 274° |
| 2026-05-08 03:14 | 39.99205 | -82.88048 | 834 ft | 147 kts | 274° |
| 2026-05-08 03:14 | 39.99265 | -82.89138 | 825 ft | 81 kts | 274° |
| 2026-05-08 03:14 | 39.99340 | -82.89537 | 825 ft | 26 kts | 314° |
| 2026-05-08 03:14 | 39.99409 | -82.89694 | 824 ft | 4 kts | 304° |
| 2026-05-08 03:15 | 39.99409 | -82.89695 | 825 ft | 0 kts | 304° |
| 2026-05-08 03:15 | 39.99424 | -82.89711 | 825 ft | 4 kts | 333° |
| 2026-05-08 03:15 | 39.99469 | -82.89665 | 825 ft | 13 kts | 71° |
| 2026-05-08 03:15 | 39.99464 | -82.89544 | 825 ft | 14 kts | 94° |
| 2026-05-08 03:16 | 39.99457 | -82.89389 | 825 ft | 19 kts | 94° |
| 2026-05-08 03:16 | 39.99446 | -82.89208 | 825 ft | 21 kts | 95° |
| 2026-05-08 03:16 | 39.99435 | -82.89015 | 825 ft | 22 kts | 94° |
| 2026-05-08 03:16 | 39.99424 | -82.88814 | 825 ft | 23 kts | 94° |
| 2026-05-08 03:17 | 39.99411 | -82.88601 | 822 ft | 24 kts | 94° |
| 2026-05-08 03:17 | 39.99400 | -82.88393 | 825 ft | 18 kts | 92° |
| 2026-05-08 03:17 | 39.99478 | -82.88322 | 825 ft | 16 kts | 3° |
| 2026-05-08 03:17 | 39.99589 | -82.88310 | 825 ft | 16 kts | 16° |
| 2026-05-08 03:18 | 39.99614 | -82.88252 | 825 ft | 2 kts | 78° |
| 2026-05-08 03:18 | 39.99619 | -82.88223 | 825 ft | 4 kts | 80° |
| 2026-05-08 03:18 | 39.99628 | -82.88182 | 823 ft | 5 kts | 58° |
| 2026-05-08 03:18 | 39.99662 | -82.88171 | 825 ft | 6 kts | 8° |
| 2026-05-08 03:19 | 39.99708 | -82.88161 | 823 ft | 7 kts | 8° |
| 2026-05-08 03:19 | 39.99736 | -82.88156 | 822 ft | 4 kts | 9° |
| 2026-05-08 03:19 | 39.99743 | -82.88154 | 825 ft | 0 kts | 9° |